Time;durP1;ratioP1;P1;durP2;ratioP2;P2;SDS_P1;SDS_P2;PMS_P1;PMS_P2;Temp;Humidity;BMP_temperature;BMP_pressure;BME280_temperature;BME280_humidity;BME280_pressure;Samples;Min_cycle;Max_cycle;Signal;HPM_P1;HPM_P2
2022/07/22 00:01:27;;;;;;;8.33;7.53;;;;;;;19.57;94.29;98522.31;5057454;28;20215;-70
2022/07/22 00:03:53;;;;;;;7.73;7.03;;;;;;;19.54;95.99;98513.72;5055415;28;20216;-70
2022/07/22 00:06:20;;;;;;;7.73;7.03;;;;;;;19.51;96.66;98520.22;5058536;28;20216;-70
2022/07/22 00:08:46;;;;;;;8.27;7.23;;;;;;;19.51;97.43;98508.69;5056983;28;20309;-70
2022/07/22 00:11:13;;;;;;;8.13;7.00;;;;;;;19.48;98.40;98507.13;5057380;28;20212;-70
2022/07/22 00:13:39;;;;;;;7.40;6.67;;;;;;;19.41;99.54;98508.75;5057202;28;20222;-70
2022/07/22 00:16:07;;;;;;;8.30;7.20;;;;;;;19.41;99.53;98508.75;5058074;28;20222;-70
2022/07/22 00:18:35;;;;;;;8.13;7.33;;;;;;;19.40;98.84;98507.06;5057178;28;20680;-70
2022/07/22 00:21:01;;;;;;;8.03;7.23;;;;;;;19.43;98.96;98509.44;5056770;28;20244;-70
2022/07/22 00:23:28;;;;;;;8.13;7.33;;;;;;;19.41;99.08;98508.75;5057088;28;20247;-70
2022/07/22 00:25:54;;;;;;;8.17;7.37;;;;;;;19.37;98.90;98507.34;5057677;28;20238;-72
2022/07/22 00:28:21;;;;;;;9.27;7.60;;;;;;;19.36;99.11;98503.00;5057361;28;20212;-70
2022/07/22 00:30:48;;;;;;;7.73;7.03;;;;;;;19.38;99.15;98498.31;5055282;28;20587;-70
2022/07/22 00:33:14;;;;;;;8.30;7.50;;;;;;;19.34;99.08;98499.63;5056558;28;20700;-70
2022/07/22 00:35:42;;;;;;;8.07;7.37;;;;;;;19.31;97.74;98507.09;5056871;28;20229;-71
2022/07/22 00:38:08;;;;;;;8.60;7.70;;;;;;;19.33;97.03;98499.78;5057627;28;20204;-70
2022/07/22 00:40:35;;;;;;;7.67;6.97;;;;;;;19.30;96.52;98503.59;5056770;28;20230;-70
2022/07/22 00:43:02;;;;;;;7.50;6.80;;;;;;;19.26;96.38;98499.53;5056339;28;20239;-71
2022/07/22 00:45:28;;;;;;;7.40;6.70;;;;;;;19.25;96.20;98499.66;5056661;28;20212;-71
2022/07/22 00:47:55;;;;;;;8.00;7.20;;;;;;;19.22;96.23;98492.81;5054727;28;20310;-71
2022/07/22 00:50:23;;;;;;;7.40;6.70;;;;;;;19.20;96.35;98492.09;5055669;28;20220;-70
2022/07/22 00:52:51;;;;;;;7.90;7.20;;;;;;;19.16;97.94;98482.66;5056404;28;20305;-71
2022/07/22 00:55:18;;;;;;;8.17;7.47;;;;;;;19.11;97.97;98487.63;5056254;28;20214;-70
2022/07/22 00:57:44;;;;;;;7.87;7.03;;;;;;;19.07;98.66;98488.06;5057085;28;20211;-70
2022/07/22 01:00:15;;;;;;;7.90;7.20;;;;;;;18.99;99.40;98494.16;5055827;28;20700;-70
2022/07/22 01:02:41;;;;;;;7.93;7.13;;;;;;;18.78;100.00;98492.72;5044098;28;20600;-70
2022/07/22 01:05:09;;;;;;;8.30;7.40;;;;;;;18.56;100.00;98493.94;5052536;28;20575;-70
2022/07/22 01:07:37;;;;;;;9.20;8.23;;;;;;;18.34;100.00;98494.28;5056252;28;20297;-70
2022/07/22 01:10:07;;;;;;;9.00;8.13;;;;;;;18.18;100.00;98488.69;5056178;28;20209;-70
2022/07/22 01:12:33;;;;;;;10.40;8.13;;;;;;;18.10;100.00;98491.22;5056052;28;20220;-70
2022/07/22 01:15:00;;;;;;;9.00;8.10;;;;;;;18.02;100.00;98491.09;5055774;28;20216;-69
2022/07/22 01:17:27;;;;;;;8.97;8.17;;;;;;;17.99;100.00;98486.03;5054617;28;20218;-70
2022/07/22 01:19:53;;;;;;;9.90;9.00;;;;;;;17.92;100.00;98482.25;5055933;28;20220;-70
2022/07/22 01:22:21;;;;;;;10.00;9.00;;;;;;;17.84;100.00;98483.94;5053769;28;20254;-70
2022/07/22 01:24:48;;;;;;;10.30;9.30;;;;;;;17.76;100.00;98482.00;5055885;28;20583;-70
2022/07/22 01:27:15;;;;;;;9.77;8.77;;;;;;;17.75;100.00;98488.31;5054063;28;20215;-70
2022/07/22 01:29:41;;;;;;;9.63;8.67;;;;;;;17.72;100.00;98485.94;5055716;28;20223;-70
2022/07/22 01:32:08;;;;;;;9.60;8.70;;;;;;;17.73;100.00;98487.63;5055391;28;20701;-70
2022/07/22 01:34:34;;;;;;;9.93;8.50;;;;;;;17.77;100.00;98483.69;5055698;28;20218;-70
2022/07/22 01:37:01;;;;;;;9.63;8.63;;;;;;;17.77;100.00;98489.03;5056840;28;20692;-71
2022/07/22 01:39:28;;;;;;;10.40;8.87;;;;;;;17.77;100.00;98483.69;5055597;28;20212;-71
2022/07/22 01:41:55;;;;;;;11.77;8.80;;;;;;;17.76;100.00;98487.34;5055584;28;20238;-71
2022/07/22 01:44:21;;;;;;;9.70;8.80;;;;;;;17.71;100.00;98488.75;5055384;28;20238;-71
2022/07/22 01:46:48;;;;;;;10.80;9.70;;;;;;;17.72;100.00;98485.94;5056705;28;20230;-71
2022/07/22 01:49:16;;;;;;;10.60;9.50;;;;;;;17.72;100.00;98487.75;5053427;28;20216;-70
2022/07/22 01:51:43;;;;;;;11.33;9.40;;;;;;;17.65;100.00;98492.84;5055378;28;20220;-70
2022/07/22 01:54:09;;;;;;;10.23;9.23;;;;;;;17.50;100.00;98494.22;5055135;28;20238;-69
2022/07/22 01:56:37;;;;;;;10.20;9.20;;;;;;;17.40;100.00;98495.22;5056611;28;20223;-71
2022/07/22 01:59:04;;;;;;;9.43;8.53;;;;;;;17.36;100.00;98483.06;5055277;28;20216;-71
2022/07/22 02:01:30;;;;;;;9.90;8.90;;;;;;;17.29;100.00;98481.94;5054712;28;20216;-70
2022/07/22 02:03:57;;;;;;;9.50;8.60;;;;;;;17.28;100.00;98482.94;5054488;28;20709;-68
2022/07/22 02:06:23;;;;;;;9.83;8.83;;;;;;;17.29;100.00;98482.81;5056730;28;20223;-70
2022/07/22 02:08:50;;;;;;;10.23;9.20;;;;;;;17.26;100.00;98496.41;5054974;28;20208;-70
2022/07/22 02:11:17;;;;;;;10.47;9.37;;;;;;;17.22;100.00;98492.34;5054698;28;20220;-68
2022/07/22 02:13:45;;;;;;;10.90;9.00;;;;;;;17.19;100.00;98481.09;5053125;28;20242;-70
2022/07/22 02:16:12;;;;;;;10.30;9.20;;;;;;;17.14;100.00;98489.50;5056520;28;20299;-71
2022/07/22 02:18:38;;;;;;;10.23;9.17;;;;;;;17.14;100.00;98484.16;5054969;28;20213;-71
2022/07/22 02:21:05;;;;;;;10.70;9.60;;;;;;;17.16;100.00;98487.56;5054632;28;20362;-71
2022/07/22 02:23:32;;;;;;;10.23;9.23;;;;;;;17.12;100.00;98482.66;5054507;28;20244;-70
2022/07/22 02:25:58;;;;;;;9.77;8.77;;;;;;;17.08;100.00;98486.56;5056033;28;20222;-70
2022/07/22 02:28:25;;;;;;;10.27;9.17;;;;;;;17.02;100.00;98485.28;5067829;28;20342;-71
2022/07/22 02:30:53;;;;;;;10.30;9.30;;;;;;;17.01;100.00;98483.59;5054784;28;20238;-70
2022/07/22 02:33:19;;;;;;;10.10;9.10;;;;;;;17.00;100.00;98479.22;5054793;28;20212;-70
2022/07/22 02:35:46;;;;;;;10.17;9.17;;;;;;;17.08;100.00;98482.03;5055464;28;20222;-71
2022/07/22 02:38:13;;;;;;;10.97;9.90;;;;;;;17.15;100.00;98480.53;5054840;28;20210;-71
2022/07/22 02:40:39;;;;;;;9.97;8.93;;;;;;;17.19;100.00;98471.25;5052710;28;20673;-70
2022/07/22 02:43:06;;;;;;;11.07;9.07;;;;;;;17.22;100.00;98470.13;5054439;28;20235;-69
2022/07/22 02:45:33;;;;;;;9.60;8.70;;;;;;;17.15;100.00;98469.00;5055133;28;20215;-70
2022/07/22 02:48:01;;;;;;;10.13;9.10;;;;;;;17.14;100.00;98473.47;5055015;28;20212;-70
2022/07/22 02:50:28;;;;;;;10.00;9.00;;;;;;;17.13;100.00;98471.81;5054565;28;20219;-70
2022/07/22 02:52:54;;;;;;;10.37;9.33;;;;;;;17.14;100.00;98468.16;5054229;28;20688;-70
2022/07/22 02:55:21;;;;;;;10.37;9.37;;;;;;;17.17;100.00;98478.56;5054692;28;20226;-70
2022/07/22 02:57:47;;;;;;;11.57;9.33;;;;;;;17.22;100.00;98467.47;5055452;28;20223;-70
2022/07/22 03:00:15;;;;;;;10.60;9.60;;;;;;;17.22;100.00;98470.97;5054455;28;20238;-70
2022/07/22 03:02:41;;;;;;;10.27;9.13;;;;;;;17.24;100.00;98465.50;5054361;28;20215;-70
2022/07/22 03:05:10;;;;;;;10.03;9.03;;;;;;;17.22;100.00;98473.66;5054603;28;20208;-70
2022/07/22 03:07:37;;;;;;;9.87;8.67;;;;;;;17.20;100.00;98472.94;5053644;28;20215;-70
2022/07/22 03:10:04;;;;;;;9.73;8.77;;;;;;;17.22;100.00;98476.34;5054342;28;20212;-70
2022/07/22 03:12:31;;;;;;;11.07;9.73;;;;;;;17.28;100.00;98469.56;5054096;28;20216;-70
2022/07/22 03:14:57;;;;;;;12.40;10.27;;;;;;;17.36;100.00;98472.38;5057799;28;20239;-70
2022/07/22 03:17:24;;;;;;;10.53;9.50;;;;;;;17.35;100.00;98476.91;5059563;28;20238;-70
2022/07/22 03:19:50;;;;;;;11.07;9.87;;;;;;;17.40;100.00;98473.84;5058226;28;20216;-70
2022/07/22 03:22:18;;;;;;;12.37;10.13;;;;;;;17.41;100.00;98470.16;5058163;28;20270;-70
2022/07/22 03:24:46;;;;;;;9.50;8.60;;;;;;;17.39;100.00;98475.69;5058457;28;20331;-70
2022/07/22 03:27:12;;;;;;;10.27;9.20;;;;;;;17.37;100.00;98485.66;5056476;28;20207;-70
2022/07/22 03:29:39;;;;;;;10.40;9.40;;;;;;;17.32;100.00;98481.69;5058152;28;20220;-70
2022/07/22 03:32:05;;;;;;;11.17;10.00;;;;;;;17.33;100.00;98483.38;5056268;28;20212;-70
2022/07/22 03:34:32;;;;;;;11.10;10.00;;;;;;;17.32;100.00;98482.50;5057929;28;20220;-70
2022/07/22 03:36:58;;;;;;;11.97;9.83;;;;;;;17.32;100.00;98487.84;5059221;28;20208;-70
2022/07/22 03:39:26;;;;;;;12.23;10.87;;;;;;;17.34;100.00;98485.91;5057715;28;20216;-70
2022/07/22 03:41:53;;;;;;;12.13;10.83;;;;;;;17.29;100.00;98482.81;5067202;28;20226;-70
2022/07/22 03:44:19;;;;;;;12.87;11.47;;;;;;;17.42;100.00;98482.53;5061026;28;20599;-70
2022/07/22 03:46:46;;;;;;;11.37;10.17;;;;;;;17.39;100.00;98483.69;5059327;28;20303;-70
2022/07/22 03:49:12;;;;;;;11.37;10.17;;;;;;;17.36;100.00;98483.94;5057764;28;20556;-69
2022/07/22 03:51:38;;;;;;;11.13;10.03;;;;;;;17.35;100.00;98482.25;5057705;28;20235;-70
2022/07/22 03:54:05;;;;;;;11.53;10.33;;;;;;;17.38;100.00;98486.50;5057641;28;20578;-70
2022/07/22 03:56:33;;;;;;;12.67;11.37;;;;;;;17.39;100.00;98485.50;5059209;28;20224;-70
2022/07/22 03:59:00;;;;;;;11.13;9.67;;;;;;;17.35;100.00;98487.59;5055555;28;20662;-70
2022/07/22 04:01:26;;;;;;;10.67;9.67;;;;;;;17.38;100.00;98487.31;5057566;28;20218;-70
2022/07/22 04:03:53;;;;;;;11.93;10.80;;;;;;;17.46;100.00;98484.81;5057581;28;20239;-70
2022/07/22 04:06:19;;;;;;;11.47;10.37;;;;;;;17.44;100.00;98480.59;5059154;28;20222;-69
2022/07/22 04:08:46;;;;;;;11.47;10.30;;;;;;;17.44;100.00;98483.28;5057555;28;20250;-71
2022/07/22 04:11:12;;;;;;;11.83;10.63;;;;;;;17.45;100.00;98485.81;5057438;28;20216;-70
2022/07/22 04:13:40;;;;;;;12.00;10.23;;;;;;;17.51;100.00;98487.06;5057253;28;20216;-71
2022/07/22 04:16:07;;;;;;;11.83;10.47;;;;;;;17.48;100.00;98485.50;5059095;28;20219;-71
2022/07/22 04:18:34;;;;;;;11.67;10.47;;;;;;;17.54;100.00;98492.97;5042549;28;20212;-71
2022/07/22 04:21:00;;;;;;;10.67;9.57;;;;;;;17.61;100.00;98490.59;5057050;28;20568;-71
2022/07/22 04:23:27;;;;;;;10.97;9.87;;;;;;;17.61;100.00;98479.91;5056626;28;20258;-68
2022/07/22 04:25:53;;;;;;;10.97;9.87;;;;;;;17.62;100.00;98478.91;5055849;28;20227;-68
2022/07/22 04:28:20;;;;;;;13.93;10.20;;;;;;;17.71;100.00;98492.28;5057244;28;20299;-68
2022/07/22 04:30:48;;;;;;;11.90;10.60;;;;;;;17.73;100.00;98492.97;5056624;28;20212;-68
2022/07/22 04:33:15;;;;;;;11.10;9.97;;;;;;;17.68;100.00;98484.53;5056491;28;20216;-68
2022/07/22 04:35:41;;;;;;;11.33;10.10;;;;;;;17.76;100.00;98482.00;5057521;28;20218;-68
2022/07/22 04:38:08;;;;;;;13.07;10.40;;;;;;;17.75;100.00;98480.28;5057441;28;20247;-68
2022/07/22 04:40:34;;;;;;;11.33;10.23;;;;;;;17.80;100.00;98483.38;5056729;28;20215;-68
2022/07/22 04:43:01;;;;;;;11.33;9.67;;;;;;;17.83;100.00;98474.25;5056560;28;20216;-68
2022/07/22 04:45:28;;;;;;;10.40;9.40;;;;;;;17.79;100.00;98480.88;5056609;28;20216;-70
2022/07/22 04:47:56;;;;;;;10.80;9.70;;;;;;;17.81;100.00;98479.72;5057647;28;20565;-70
2022/07/22 04:50:22;;;;;;;11.73;10.53;;;;;;;17.74;100.00;98475.94;5054712;28;20212;-70
2022/07/22 04:52:49;;;;;;;11.67;10.40;;;;;;;17.93;100.00;98478.59;5056396;28;20219;-70
2022/07/22 04:55:15;;;;;;;11.97;10.67;;;;;;;18.00;100.00;98474.38;5056587;28;20550;-70
2022/07/22 04:57:42;;;;;;;11.07;9.97;;;;;;;17.98;100.00;98481.66;5055154;28;20218;-70
2022/07/22 05:00:09;;;;;;;11.93;10.73;;;;;;;17.97;100.00;98471.09;5056256;28;20223;-70
2022/07/22 05:02:36;;;;;;;11.90;10.70;;;;;;;18.00;100.00;98468.16;5056360;28;20218;-71
2022/07/22 05:05:04;;;;;;;12.30;11.00;;;;;;;18.12;100.00;98473.22;5056273;28;20239;-71
2022/07/22 05:07:31;;;;;;;11.30;10.20;;;;;;;18.18;100.00;98472.66;5057495;28;20706;-71
2022/07/22 05:09:57;;;;;;;13.43;10.77;;;;;;;18.33;100.00;98473.88;5056241;28;20224;-71
2022/07/22 05:12:24;;;;;;;12.77;11.47;;;;;;;18.43;100.00;98476.53;5056249;28;20226;-70
2022/07/22 05:14:50;;;;;;;11.10;10.00;;;;;;;18.55;100.00;98476.22;5055869;28;20212;-71
2022/07/22 05:17:17;;;;;;;10.63;9.63;;;;;;;18.67;100.00;98475.03;5055810;28;20299;-70
2022/07/22 05:19:43;;;;;;;11.67;10.57;;;;;;;18.87;100.00;98483.78;5055851;28;20212;-70
2022/07/22 05:22:11;;;;;;;11.43;10.23;;;;;;;19.38;100.00;98476.03;5056156;28;20585;-70
2022/07/22 05:24:37;;;;;;;11.70;10.40;;;;;;;20.26;100.00;98474.97;5055825;28;20242;-70
2022/07/22 05:27:04;;;;;;;10.87;9.87;;;;;;;21.16;95.51;98481.47;5057246;28;20220;-70
2022/07/22 05:29:31;;;;;;;10.37;9.37;;;;;;;21.95;90.07;98474.53;5056029;28;20306;-70
2022/07/22 05:31:57;;;;;;;10.07;9.07;;;;;;;22.64;84.74;98472.13;5055708;28;20222;-71
2022/07/22 05:34:24;;;;;;;11.73;9.47;;;;;;;23.25;80.65;98472.22;5055737;28;20212;-69
2022/07/22 05:36:50;;;;;;;9.30;8.40;;;;;;;23.89;77.82;98482.63;5056745;28;20694;-69
2022/07/22 05:39:19;;;;;;;10.03;8.63;;;;;;;24.37;74.74;98475.94;5055332;28;20595;-69
2022/07/22 05:41:45;;;;;;;10.17;9.20;;;;;;;24.78;71.81;98478.06;5054263;28;20212;-70
2022/07/22 05:44:12;;;;;;;9.13;8.27;;;;;;;25.15;70.27;98477.09;5055034;28;20235;-70
2022/07/22 05:46:38;;;;;;;9.33;8.37;;;;;;;25.36;68.52;98469.91;5057365;28;20218;-69
2022/07/22 05:49:05;;;;;;;9.53;8.63;;;;;;;25.72;67.21;98486.97;5055424;28;20227;-70
2022/07/22 05:51:31;;;;;;;9.67;8.67;;;;;;;26.03;64.83;98473.97;5055111;28;20743;-69
2022/07/22 05:53:58;;;;;;;9.53;8.63;;;;;;;26.38;63.62;98478.44;5055023;28;20259;-69
2022/07/22 05:56:26;;;;;;;9.47;8.67;;;;;;;26.65;61.53;98488.47;5057008;28;20216;-69
2022/07/22 05:58:52;;;;;;;8.97;8.17;;;;;;;26.90;60.38;98480.69;5041024;28;20212;-69
2022/07/22 06:01:19;;;;;;;9.43;8.50;;;;;;;27.05;59.36;98490.38;5055002;28;20227;-69
2022/07/22 06:03:45;;;;;;;9.83;8.83;;;;;;;26.85;59.20;98486.72;5055090;28;20323;-69
2022/07/22 06:06:12;;;;;;;9.00;8.20;;;;;;;26.78;58.56;98485.84;5056038;28;20696;-69
2022/07/22 06:08:38;;;;;;;9.00;8.17;;;;;;;26.51;58.44;98483.13;5053716;28;20212;-69
2022/07/22 06:11:05;;;;;;;9.43;8.53;;;;;;;26.25;59.64;98485.63;5055138;28;20212;-69
2022/07/22 06:13:34;;;;;;;9.10;8.20;;;;;;;26.37;59.42;98482.19;5053815;28;20289;-69
2022/07/22 06:16:00;;;;;;;9.23;8.33;;;;;;;26.35;59.61;98494.25;5051432;28;20239;-69
2022/07/22 06:18:27;;;;;;;9.53;8.60;;;;;;;26.63;58.25;98487.81;5051732;28;20230;-70
2022/07/22 06:20:54;;;;;;;8.63;7.60;;;;;;;27.06;56.92;98489.34;5052697;28;20240;-69
2022/07/22 06:23:21;;;;;;;8.03;7.33;;;;;;;27.17;56.02;98480.66;5052594;28;20208;-69
2022/07/22 06:25:47;;;;;;;8.77;7.87;;;;;;;27.43;55.83;98483.47;5054266;28;20246;-70
2022/07/22 06:28:13;;;;;;;8.53;7.83;;;;;;;27.68;55.37;98484.59;5054118;28;20223;-70
2022/07/22 06:30:41;;;;;;;7.60;6.90;;;;;;;27.89;53.89;98485.31;5053366;28;20216;-70
2022/07/22 06:33:08;;;;;;;8.70;7.90;;;;;;;27.92;52.89;98481.34;5053431;28;20212;-70
2022/07/22 06:35:35;;;;;;;7.93;7.13;;;;;;;27.50;53.36;98478.91;5052055;28;20216;-70
2022/07/22 06:38:02;;;;;;;8.90;7.37;;;;;;;27.46;53.90;98481.19;5054270;28;20681;-70
2022/07/22 06:40:28;;;;;;;7.83;7.13;;;;;;;27.91;53.10;98479.66;5053205;28;20212;-70
2022/07/22 06:42:55;;;;;;;9.43;8.40;;;;;;;28.16;52.98;98486.19;5053460;28;20212;-70
2022/07/22 06:45:21;;;;;;;8.93;8.03;;;;;;;28.27;51.91;98488.28;5053196;28;20606;-70
2022/07/22 06:47:49;;;;;;;8.60;7.80;;;;;;;28.41;51.70;98471.78;5054469;28;20211;-71
2022/07/22 06:50:15;;;;;;;8.87;8.00;;;;;;;28.38;51.88;98474.91;5053261;28;20222;-72
2022/07/22 06:52:43;;;;;;;8.70;7.80;;;;;;;28.20;52.06;98482.00;5053173;28;20212;-71
2022/07/22 06:55:10;;;;;;;7.90;7.13;;;;;;;28.12;52.30;98479.50;5053055;28;20220;-70
2022/07/22 06:57:37;;;;;;;8.43;7.60;;;;;;;28.09;52.60;98491.63;5054621;28;20233;-70
2022/07/22 07:00:07;;;;;;;8.60;7.70;;;;;;;27.95;53.53;98478.22;5053405;28;20222;-70
2022/07/22 07:02:33;;;;;;;7.97;7.23;;;;;;;27.72;53.74;98480.44;5051403;28;20258;-70
2022/07/22 07:05:01;;;;;;;8.93;7.70;;;;;;;27.05;55.45;98482.25;5052951;28;20242;-70
2022/07/22 07:07:28;;;;;;;8.40;7.60;;;;;;;26.12;59.57;98480.94;5054272;28;20216;-69
2022/07/22 07:09:55;;;;;;;8.27;7.47;;;;;;;25.13;64.19;98480.00;5052749;28;20216;-70
2022/07/22 07:12:21;;;;;;;10.63;8.90;;;;;;;24.49;66.04;98480.72;5052853;28;20212;-69
2022/07/22 07:14:48;;;;;;;10.20;8.30;;;;;;;24.09;69.15;98467.56;5052706;28;20588;-69
2022/07/22 07:17:15;;;;;;;10.67;9.37;;;;;;;24.00;69.08;98468.69;5054306;28;20211;-71
2022/07/22 07:19:41;;;;;;;9.53;8.47;;;;;;;23.63;69.64;98463.22;5052633;28;20669;-69
2022/07/22 07:22:09;;;;;;;11.03;9.80;;;;;;;23.47;70.20;98467.88;5052482;28;20244;-71
2022/07/22 07:24:36;;;;;;;10.23;9.23;;;;;;;23.32;72.96;98462.41;5052645;28;20728;-69
2022/07/22 07:27:02;;;;;;;10.40;9.30;;;;;;;23.20;72.37;98462.97;5052917;28;20207;-71
2022/07/22 07:29:29;;;;;;;13.13;10.00;;;;;;;23.12;72.95;98450.38;5053048;28;20219;-70
2022/07/22 07:31:55;;;;;;;14.20;10.47;;;;;;;23.22;73.98;98451.00;5052691;28;20262;-69
2022/07/22 07:34:22;;;;;;;10.83;9.73;;;;;;;23.15;74.97;98454.53;5052933;28;20219;-70
2022/07/22 07:36:48;;;;;;;11.30;9.37;;;;;;;23.14;75.49;98451.03;5052608;28;20215;-69
2022/07/22 07:39:16;;;;;;;12.97;10.50;;;;;;;23.14;74.34;98448.31;5052872;28;20583;-69
2022/07/22 07:41:43;;;;;;;12.03;9.70;;;;;;;23.12;74.96;98444.13;5052670;28;20216;-69
2022/07/22 07:44:09;;;;;;;10.47;9.50;;;;;;;23.27;75.92;98447.75;5052541;28;20689;-69
2022/07/22 07:46:37;;;;;;;14.10;10.70;;;;;;;23.30;74.05;98440.19;5054631;28;20216;-69
2022/07/22 07:49:03;;;;;;;10.33;9.40;;;;;;;23.21;73.82;98443.06;5052618;28;20378;-69
2022/07/22 07:51:30;;;;;;;10.80;9.40;;;;;;;23.29;75.49;98441.16;5052376;28;20674;-71
2022/07/22 07:53:57;;;;;;;11.20;9.67;;;;;;;23.43;75.21;98437.72;5051150;28;20277;-70
2022/07/22 07:56:25;;;;;;;9.10;7.93;;;;;;;23.63;76.21;98435.38;5054243;28;20218;-70
2022/07/22 07:58:52;;;;;;;12.03;10.83;;;;;;;23.89;71.49;98434.00;5052884;28;20220;-71
2022/07/22 08:01:19;;;;;;;10.90;9.83;;;;;;;23.89;71.88;98431.31;5054552;28;20220;-71
2022/07/22 08:03:45;;;;;;;10.47;9.37;;;;;;;23.95;73.49;98433.28;5056155;28;20308;-70
2022/07/22 08:06:12;;;;;;;10.03;9.13;;;;;;;24.03;72.31;98430.50;5057560;28;20243;-69
2022/07/22 08:08:38;;;;;;;12.03;10.47;;;;;;;24.19;69.64;98433.06;5056140;28;20220;-69
2022/07/22 08:11:05;;;;;;;11.67;10.47;;;;;;;24.09;70.36;98432.47;5056176;28;20217;-68
2022/07/22 08:13:33;;;;;;;12.30;10.30;;;;;;;24.10;71.41;98431.47;5056090;28;20235;-69
2022/07/22 08:16:00;;;;;;;11.53;9.87;;;;;;;24.20;72.12;98429.34;5056665;28;20207;-69
2022/07/22 08:18:27;;;;;;;10.47;9.47;;;;;;;24.24;68.80;98432.50;5056025;28;20216;-69
2022/07/22 08:20:53;;;;;;;11.50;10.30;;;;;;;24.23;68.49;98426.28;5054076;28;20236;-69
2022/07/22 08:23:20;;;;;;;9.97;8.97;;;;;;;24.16;69.68;98429.88;5055505;28;20748;-69
2022/07/22 08:25:46;;;;;;;9.97;9.07;;;;;;;24.21;70.94;98431.00;5056491;28;20236;-69
2022/07/22 08:28:13;;;;;;;10.40;9.23;;;;;;;24.32;69.86;98430.56;5056235;28;20220;-70
2022/07/22 08:30:41;;;;;;;12.07;10.03;;;;;;;24.60;69.47;98428.09;5055688;28;20212;-68
2022/07/22 08:33:08;;;;;;;10.97;9.97;;;;;;;24.67;67.87;98427.16;5055475;28;20213;-69
2022/07/22 08:35:34;;;;;;;11.27;10.17;;;;;;;24.66;67.37;98422.78;5055923;28;20212;-68
2022/07/22 08:38:01;;;;;;;10.83;9.53;;;;;;;24.56;65.96;98422.19;5056308;28;20221;-69
2022/07/22 08:40:28;;;;;;;9.00;8.10;;;;;;;24.61;68.29;98414.41;5055427;28;20218;-69
2022/07/22 08:42:54;;;;;;;11.57;10.37;;;;;;;24.83;67.11;98418.00;5055319;28;20223;-69
2022/07/22 08:45:21;;;;;;;10.67;9.47;;;;;;;24.83;67.24;98407.19;5055640;28;20235;-69
2022/07/22 08:47:51;;;;;;;10.40;9.30;;;;;;;24.88;66.35;98410.19;5052340;28;20211;-69
2022/07/22 08:50:18;;;;;;;12.60;11.13;;;;;;;25.03;66.02;98403.72;5055317;28;20208;-68
2022/07/22 08:52:45;;;;;;;11.53;10.40;;;;;;;24.91;66.20;98394.41;5055383;28;20212;-69
2022/07/22 08:55:12;;;;;;;11.47;10.27;;;;;;;24.93;66.89;98402.34;5055165;28;20223;-68
2022/07/22 08:57:38;;;;;;;12.93;10.40;;;;;;;24.85;66.45;98400.56;5056640;28;20222;-69
2022/07/22 09:00:11;;;;;;;10.60;9.60;;;;;;;24.98;65.89;98394.47;5055358;28;20220;-69
2022/07/22 09:02:40;;;;;;;10.20;9.20;;;;;;;25.17;66.88;98394.72;5055521;28;20216;-70
2022/07/22 09:05:10;;;;;;;12.93;11.63;;;;;;;25.44;64.67;98393.16;5055778;28;20268;-68
2022/07/22 09:07:38;;;;;;;11.67;10.47;;;;;;;25.41;64.67;98390.84;5055325;28;20581;-70
2022/07/22 09:10:08;;;;;;;11.90;10.80;;;;;;;25.40;66.15;98381.88;5054911;28;20224;-70
2022/07/22 09:12:35;;;;;;;12.27;10.07;;;;;;;25.42;64.41;98379.00;5052633;28;20219;-71
2022/07/22 09:15:03;;;;;;;11.23;9.73;;;;;;;25.48;64.83;98389.06;5056192;28;20220;-71
2022/07/22 09:17:32;;;;;;;11.43;10.10;;;;;;;25.54;65.44;98391.81;5040777;28;20219;-71
2022/07/22 09:20:00;;;;;;;10.77;9.80;;;;;;;25.62;63.08;98383.56;5054946;28;20219;-71
2022/07/22 09:22:37;;;;;;;11.07;9.83;;;;;;;25.66;64.02;98389.44;5035157;28;20256;-70
2022/07/22 09:25:22;;;;;;;10.33;9.33;;;;;;;25.85;65.13;98389.59;5036502;28;20242;-69
2022/07/22 09:27:50;;;;;;;9.67;8.80;;;;;;;26.02;62.49;98385.59;5034728;28;20304;-69
2022/07/22 09:30:19;;;;;;;10.37;9.37;;;;;;;26.18;63.63;98385.31;5034589;28;20579;-69
2022/07/22 09:32:46;;;;;;;11.37;10.27;;;;;;;26.28;61.40;98391.19;5036168;28;20244;-69
2022/07/22 09:35:13;;;;;;;10.82;9.80;;;;;;;26.25;60.83;98391.63;5020263;28;20220;-69
2022/07/22 09:37:52;;;;;;;9.80;8.80;;;;;;;26.12;62.36;98380.69;5032758;28;20220;-69
2022/07/22 09:40:21;;;;;;;8.90;8.00;;;;;;;26.12;61.88;98379.84;5032739;28;20216;-70
2022/07/22 09:42:50;;;;;;;9.73;8.60;;;;;;;26.24;62.86;98383.69;5035974;28;20224;-70
2022/07/22 09:45:17;;;;;;;9.23;8.37;;;;;;;26.39;61.50;98377.09;5033995;28;20243;-70
2022/07/22 09:47:45;;;;;;;9.13;8.23;;;;;;;26.49;59.05;98376.75;5033547;28;20591;-69
2022/07/22 09:50:19;;;;;;;9.67;8.67;;;;;;;26.46;58.76;98380.69;5034027;28;20721;-70
2022/07/22 09:52:47;;;;;;;8.27;7.53;;;;;;;26.53;60.51;98378.88;5033212;28;20599;-70
2022/07/22 09:55:16;;;;;;;9.38;8.52;;;;;;;26.67;58.24;98371.66;5033931;28;20209;-70
2022/07/22 09:57:43;;;;;;;8.10;7.35;;;;;;;26.84;57.43;98368.41;5034227;28;20215;-69
2022/07/22 10:00:11;;;;;;;8.60;7.57;;;;;;;26.98;58.72;98370.13;5034694;28;20228;-69
2022/07/22 10:02:41;;;;;;;9.30;7.93;;;;;;;27.16;58.96;98359.59;5034348;28;20220;-69
2022/07/22 10:05:09;;;;;;;9.18;7.90;;;;;;;27.38;57.72;98364.66;5033603;28;20710;-69
2022/07/22 10:07:38;;;;;;;8.50;7.70;;;;;;;27.37;56.00;98356.69;5032334;28;20212;-69
2022/07/22 10:10:06;;;;;;;8.75;7.97;;;;;;;27.44;56.93;98350.25;5035180;28;20213;-69
2022/07/22 10:12:35;;;;;;;9.38;8.43;;;;;;;27.50;56.68;98345.84;5019488;28;20222;-69
2022/07/22 10:15:02;;;;;;;9.70;8.73;;;;;;;27.48;54.04;98345.22;5033917;28;20209;-69
2022/07/22 10:17:29;;;;;;;8.80;8.00;;;;;;;27.46;54.75;98339.19;5033522;28;20212;-69
2022/07/22 10:19:56;;;;;;;8.45;7.68;;;;;;;27.48;54.47;98328.13;5035220;28;20231;-69
2022/07/22 10:22:52;;;;;;;8.35;7.53;;;;;;;27.60;53.97;98330.00;5038968;28;20232;-69
2022/07/22 10:25:20;;;;;;;7.97;7.28;;;;;;;27.64;56.58;98317.69;5053712;28;20238;-69
2022/07/22 10:27:51;;;;;;;8.13;7.32;;;;;;;27.76;56.47;98324.16;5054954;28;20212;-70
2022/07/22 10:30:20;;;;;;;8.70;7.90;;;;;;;27.84;53.37;98323.97;5039521;28;20223;-70
2022/07/22 10:33:03;;;;;;;9.02;8.20;;;;;;;27.74;52.87;98323.50;5051894;28;20211;-70
2022/07/22 10:35:30;;;;;;;8.15;7.45;;;;;;;27.73;53.07;98319.97;5053517;28;20219;-70
2022/07/22 10:37:59;;;;;;;8.60;7.75;;;;;;;27.79;54.16;98319.16;5051918;28;20210;-70
2022/07/22 10:40:28;;;;;;;8.43;7.63;;;;;;;27.88;55.68;98303.50;5053098;28;20688;-70
2022/07/22 10:43:10;;;;;;;7.90;7.25;;;;;;;28.04;57.83;98305.75;5053393;28;20215;-70
2022/07/22 10:45:39;;;;;;;8.00;7.30;;;;;;;28.06;54.74;98295.53;5054905;28;20235;-71
2022/07/22 10:48:09;;;;;;;8.23;7.38;;;;;;;28.15;54.53;98307.84;5053350;28;20212;-70
2022/07/22 10:50:44;;;;;;;8.20;7.40;;;;;;;28.24;52.70;98290.25;5053322;28;20265;-70
2022/07/22 10:53:13;;;;;;;7.50;6.88;;;;;;;28.22;52.16;98286.91;5053050;28;20216;-70
2022/07/22 10:55:57;;;;;;;7.50;6.82;;;;;;;28.31;54.52;98288.34;5051893;28;20219;-70
2022/07/22 10:58:44;;;;;;;8.35;7.57;;;;;;;28.50;52.52;98293.75;5051605;28;20234;-70
2022/07/22 11:01:13;;;;;;;8.40;7.60;;;;;;;28.65;51.65;98288.03;5043397;28;20219;-70
2022/07/22 11:03:41;;;;;;;8.18;7.40;;;;;;;28.68;51.90;98287.63;5052924;28;20218;-70
2022/07/22 11:06:14;;;;;;;8.80;7.63;;;;;;;28.72;53.47;98288.84;5052886;28;20240;-70
2022/07/22 11:08:41;;;;;;;8.25;7.55;;;;;;;28.79;53.68;98284.22;5053191;28;20222;-70
2022/07/22 11:11:07;;;;;;;8.02;7.32;;;;;;;28.93;51.08;98277.66;5053485;28;20216;-70
2022/07/22 11:13:36;;;;;;;8.15;7.35;;;;;;;28.78;49.58;98277.09;5050474;28;21510;-70
2022/07/22 11:16:18;;;;;;;8.05;7.30;;;;;;;28.60;50.11;98276.97;5052157;28;20586;-71
2022/07/22 11:18:50;;;;;;;8.15;7.45;;;;;;;28.59;50.46;98284.31;5051968;28;20681;-71
2022/07/22 11:21:18;;;;;;;9.40;8.02;;;;;;;28.60;50.50;98285.13;5040873;28;20234;-70
2022/07/22 11:23:45;;;;;;;7.80;7.10;;;;;;;28.42;49.75;98271.41;5046095;28;20208;-71
2022/07/22 11:26:15;;;;;;;7.35;6.68;;;;;;;28.60;50.94;98274.22;5050373;28;20767;-71